Time;durP1;ratioP1;P1;durP2;ratioP2;P2;SDS_P1;SDS_P2;PMS_P1;PMS_P2;Temp;Humidity;BMP_temperature;BMP_pressure;BME280_temperature;BME280_humidity;BME280_pressure;Samples;Min_cycle;Max_cycle;Signal;HPM_P1;HPM_P2
2023/12/15 19:07:33;;;;;;;9.23;2.47;;;11.80;55.40;;;;;;7847747;22;20084;-94
2023/12/15 19:10:37;;;;;;;3.63;1.77;;;11.80;55.50;;;;;;7819946;22;20031;-93
2023/12/15 19:13:41;;;;;;;3.08;1.75;;;11.80;55.30;;;;;;7791174;22;20026;-93
2023/12/15 19:16:43;;;;;;;7.97;2.05;;;11.80;55.20;;;;;;7815752;22;20034;-94
2023/12/15 19:19:50;;;;;;;3.55;2.03;;;11.80;54.90;;;;;;7785218;22;20082;-92
2023/12/15 19:22:54;;;;;;;3.28;1.80;;;11.90;54.80;;;;;;7786215;22;20443;-94
2023/12/15 19:25:56;;;;;;;2.75;1.77;;;12.00;54.70;;;;;;7787216;22;20054;-94
2023/12/15 19:29:00;;;;;;;5.03;2.35;;;11.90;54.50;;;;;;7764715;22;20013;-93
2023/12/15 19:32:04;;;;;;;2.42;1.63;;;11.80;54.60;;;;;;7789319;22;20018;-94
2023/12/15 19:35:06;;;;;;;3.90;1.90;;;11.80;54.80;;;;;;7788704;22;20079;-94
2023/12/15 19:38:13;;;;;;;2.78;2.38;;;11.90;55.00;;;;;;7816418;22;20065;-94
2023/12/15 19:41:24;;;;;;;3.45;1.90;;;11.80;55.00;;;;;;7776876;22;20110;-93
2023/12/15 19:44:35;;;;;;;5.18;1.90;;;11.80;55.10;;;;;;7816805;22;20011;-93
2023/12/15 19:47:50;;;;;;;4.35;2.80;;;11.80;55.30;;;;;;7819395;22;20043;-93
2023/12/15 19:50:54;;;;;;;3.85;2.30;;;11.90;55.40;;;;;;7799345;22;20084;-94
2023/12/15 19:53:56;;;;;;;7.72;2.85;;;11.70;55.30;;;;;;7794743;22;20068;-96
2023/12/15 19:57:11;;;;;;;4.75;2.30;;;11.80;55.30;;;;;;7822758;22;20127;-95
2023/12/15 20:00:16;;;;;;;7.18;2.78;;;11.80;55.30;;;;;;7822460;22;20011;-96
2023/12/15 20:03:25;;;;;;;5.38;2.65;;;11.80;55.20;;;;;;7791394;22;20038;-95
2023/12/15 20:06:39;;;;;;;4.35;1.55;;;11.80;55.10;;;;;;7794473;22;20007;-96
2023/12/15 20:10:00;;;;;;;6.25;1.90;;;11.80;54.90;;;;;;7770501;22;20029;-96
2023/12/15 20:13:08;;;;;;;4.82;2.55;;;11.80;54.90;;;;;;7756872;22;20008;-94
2023/12/15 20:16:14;;;;;;;3.17;2.08;;;11.90;54.80;;;;;;7725761;22;20060;-93
2023/12/15 20:19:20;;;;;;;5.13;2.25;;;11.70;54.70;;;;;;7730886;22;20096;-94
2023/12/15 20:22:48;;;;;;;8.00;2.97;;;11.90;54.60;;;;;;7764151;22;20116;-96
2023/12/15 20:25:59;;;;;;;6.10;2.10;;;11.90;54.60;;;;;;7776480;22;20089;-95
2023/12/15 20:29:06;;;;;;;8.02;2.42;;;11.90;54.30;;;;;;7751326;22;20015;-96
2023/12/15 20:32:43;;;;;;;3.28;2.03;;;11.90;54.00;;;;;;7758878;22;20008;-96
2023/12/15 20:35:49;;;;;;;7.95;2.97;;;11.90;54.60;;;;;;7730996;22;20050;-95
2023/12/15 20:38:59;;;;;;;5.30;2.88;;;11.90;54.00;;;;;;7809585;22;20044;-94
2023/12/15 20:43:02;;;;;;;6.13;3.33;;;11.80;54.10;;;;;;7758131;22;19996;-96
2023/12/15 22:34:52;;;;;;;6.78;3.55;;;10.40;58.60;;;;;;7847370;22;20038;-93
2023/12/15 22:38:00;;;;;;;8.52;3.15;;;10.50;58.60;;;;;;7844766;22;20030;-93
2023/12/15 22:41:11;;;;;;;3.28;1.90;;;10.50;58.60;;;;;;7790035;22;20101;-92
2023/12/15 22:44:14;;;;;;;14.38;5.78;;;10.50;58.50;;;;;;7698898;23;20091;-94
2023/12/15 22:47:22;;;;;;;11.77;5.43;;;10.60;58.30;;;;;;7700907;23;20123;-93
2023/12/15 22:50:29;;;;;;;7.32;4.20;;;10.60;58.20;;;;;;7702152;23;20507;-94
2023/12/15 22:53:32;;;;;;;8.50;4.22;;;10.50;58.30;;;;;;7669973;23;20028;-93
2023/12/15 22:56:42;;;;;;;8.60;3.17;;;10.30;58.40;;;;;;7581488;23;20084;-93
2023/12/15 22:59:47;;;;;;;10.10;3.47;;;10.40;58.50;;;;;;7676876;23;20039;-93
2023/12/15 23:02:52;;;;;;;6.95;3.35;;;10.30;58.50;;;;;;7678756;23;20031;-92
2023/12/15 23:05:56;;;;;;;7.65;4.07;;;10.40;58.40;;;;;;7696479;23;20008;-94
2023/12/15 23:09:02;;;;;;;17.33;3.95;;;10.30;58.40;;;;;;7666959;23;20114;-93
2023/12/15 23:12:05;;;;;;;11.30;3.73;;;10.30;58.50;;;;;;7697536;23;20000;-92
2023/12/15 23:15:12;;;;;;;7.65;3.70;;;10.40;58.40;;;;;;7671416;23;20263;-94
2023/12/15 23:18:17;;;;;;;8.98;3.67;;;10.30;58.40;;;;;;7694770;23;20012;-93
2023/12/15 23:21:21;;;;;;;9.75;4.88;;;10.60;58.50;;;;;;7647572;23;20009;-93
2023/12/15 23:24:28;;;;;;;5.80;3.38;;;10.40;58.40;;;;;;7717881;23;20097;-93
2023/12/15 23:27:29;;;;;;;7.47;2.95;;;10.40;58.50;;;;;;7732183;22;20007;-93
2023/12/15 23:30:31;;;;;;;8.27;2.83;;;10.40;58.40;;;;;;7784458;22;20037;-93
2023/12/15 23:33:35;;;;;;;3.60;2.53;;;10.40;58.40;;;;;;7783000;22;20011;-93
2023/12/15 23:36:44;;;;;;;6.22;2.70;;;10.40;58.20;;;;;;7780381;22;20023;-92
2023/12/15 23:39:50;;;;;;;5.32;2.72;;;10.50;58.20;;;;;;7809648;22;20014;-93
2023/12/15 23:43:01;;;;;;;4.82;2.70;;;10.60;58.20;;;;;;7783832;22;20003;-94
2023/12/15 23:46:03;;;;;;;7.00;3.00;;;10.50;58.10;;;;;;7783896;22;20064;-93
2023/12/15 23:49:05;;;;;;;6.28;2.67;;;10.60;58.10;;;;;;7811535;22;20038;-93
2023/12/15 23:52:08;;;;;;;8.35;2.35;;;10.40;57.70;;;;;;7788270;22;20504;-93
2023/12/15 23:55:30;;;;;;;9.52;2.95;;;10.60;57.70;;;;;;7786894;22;20079;-93
2023/12/15 23:58:43;;;;;;;6.65;2.35;;;10.70;57.70;;;;;;7674129;23;20070;-91
